createdAt,value
2017-09-23T00:01:32.088Z,58.85
2017-09-23T00:03:58.770Z,59.20
2017-09-23T00:06:25.440Z,62.25
2017-09-23T00:08:52.132Z,60.53
2017-09-23T00:11:18.790Z,53.40
2017-09-23T00:13:45.476Z,51.83
2017-09-23T00:16:12.138Z,56.50
2017-09-23T00:18:38.825Z,64.05
2017-09-23T00:21:05.495Z,60.20
2017-09-23T00:23:32.163Z,58.10
2017-09-23T00:25:58.823Z,67.07
2017-09-23T00:28:25.483Z,62.60
2017-09-23T00:30:52.152Z,59.00
2017-09-23T00:33:18.816Z,56.90
2017-09-23T00:35:45.503Z,56.75
2017-09-23T00:38:12.175Z,57.38
2017-09-23T00:40:38.844Z,55.08
2017-09-23T00:43:05.502Z,60.15
2017-09-23T00:45:32.167Z,57.03
2017-09-23T00:47:58.830Z,55.50
2017-09-23T00:50:25.490Z,49.92
2017-09-23T00:52:52.152Z,48.70
2017-09-23T00:55:18.816Z,51.15
2017-09-23T00:57:45.487Z,52.22
2017-09-23T01:00:12.171Z,51.28
2017-09-23T01:02:38.831Z,49.20
2017-09-23T01:05:05.523Z,53.50
2017-09-23T01:07:32.187Z,52.05
2017-09-23T01:09:58.880Z,49.60
2017-09-23T01:12:25.543Z,49.08
2017-09-23T01:14:52.243Z,49.88
2017-09-23T01:17:18.912Z,49.90
2017-09-23T01:19:45.575Z,50.47
2017-09-23T01:22:12.244Z,49.95
2017-09-23T01:24:38.917Z,51.08
2017-09-23T01:27:05.580Z,46.85
2017-09-23T01:29:32.251Z,50.95
2017-09-23T01:31:58.916Z,49.70
2017-09-23T01:34:25.580Z,45.55
2017-09-23T01:36:52.282Z,48.87
2017-09-23T01:39:18.947Z,47.67
2017-09-23T01:41:45.639Z,52.10
2017-09-23T01:44:12.304Z,44.35
2017-09-23T01:46:38.968Z,47.30
2017-09-23T01:49:05.631Z,47.80
2017-09-23T01:51:32.294Z,47.65
2017-09-23T01:53:58.959Z,46.28
2017-09-23T01:56:25.619Z,45.83
2017-09-23T01:58:52.290Z,47.00
2017-09-23T02:01:18.955Z,47.72
2017-09-23T02:03:45.627Z,48.10
2017-09-23T02:06:12.291Z,47.75
2017-09-23T02:08:38.995Z,44.70
2017-09-23T02:11:05.658Z,44.70
2017-09-23T02:13:32.319Z,44.67
2017-09-23T02:15:58.990Z,47.13
2017-09-23T02:18:25.650Z,48.47
2017-09-23T02:20:52.319Z,48.63
2017-09-23T02:23:18.979Z,45.38
2017-09-23T02:25:45.638Z,46.00
2017-09-23T02:28:12.303Z,45.78
2017-09-23T02:30:38.976Z,48.97
2017-09-23T02:33:05.647Z,50.60
2017-09-23T02:35:32.351Z,49.50
2017-09-23T02:37:59.014Z,49.80
2017-09-23T02:40:25.675Z,48.50
2017-09-23T02:42:52.345Z,48.47
2017-09-23T02:45:19.026Z,49.10
2017-09-23T02:47:45.692Z,47.88
2017-09-23T02:50:12.368Z,50.45
2017-09-23T02:52:39.036Z,44.47
2017-09-23T02:55:05.705Z,46.17
2017-09-23T02:57:32.403Z,46.33
2017-09-23T02:59:59.071Z,49.03
2017-09-23T03:02:25.771Z,49.20
2017-09-23T03:04:52.435Z,49.90
2017-09-23T03:07:19.100Z,47.15
2017-09-23T03:09:45.782Z,47.30
2017-09-23T03:12:12.444Z,47.67
2017-09-23T03:14:39.131Z,48.58
2017-09-23T03:17:05.796Z,46.65
2017-09-23T03:19:32.492Z,45.60
2017-09-23T03:21:59.156Z,46.53
2017-09-23T03:24:25.868Z,45.90
2017-09-23T03:26:52.539Z,48.22
2017-09-23T03:29:19.198Z,50.92
2017-09-23T03:31:45.862Z,45.78
2017-09-23T03:34:12.523Z,45.33
2017-09-23T03:36:39.220Z,48.78
2017-09-23T03:39:05.879Z,45.90
2017-09-23T03:41:32.563Z,45.78
2017-09-23T03:43:59.227Z,47.38
2017-09-23T03:46:25.914Z,45.28
2017-09-23T03:48:52.575Z,44.80
2017-09-23T03:51:19.235Z,45.72
2017-09-23T03:53:45.904Z,47.22
2017-09-23T03:56:12.567Z,46.65
2017-09-23T03:58:39.255Z,49.38
2017-09-23T04:01:05.921Z,46.88
2017-09-23T04:03:32.615Z,45.83
2017-09-23T04:05:59.279Z,45.22
2017-09-23T04:08:25.972Z,47.10
2017-09-23T04:10:52.643Z,47.17
2017-09-23T04:13:19.343Z,46.42
2017-09-23T04:15:46.007Z,45.15
2017-09-23T04:18:12.671Z,42.62
2017-09-23T04:20:39.335Z,48.17
2017-09-23T04:23:05.995Z,47.40
2017-09-23T04:25:32.688Z,44.72
2017-09-23T04:27:59.348Z,44.80
2017-09-23T04:30:26.035Z,44.60
2017-09-23T04:32:52.703Z,42.97
2017-09-23T04:35:19.399Z,44.97
2017-09-23T04:37:46.063Z,44.72
2017-09-23T04:40:12.760Z,46.50
2017-09-23T04:42:39.424Z,41.67
2017-09-23T04:45:06.106Z,44.05
2017-09-23T04:47:32.767Z,43.17
2017-09-23T04:49:59.456Z,42.22
2017-09-23T04:52:26.123Z,43.83
2017-09-23T04:54:52.783Z,43.70
2017-09-23T04:57:19.472Z,45.40
2017-09-23T04:59:46.136Z,45.10
2017-09-23T05:02:12.823Z,44.13
2017-09-23T05:04:39.491Z,43.87
2017-09-23T05:07:06.179Z,43.33
2017-09-23T05:09:32.871Z,40.42
2017-09-23T05:11:59.556Z,45.35
2017-09-23T05:14:26.224Z,43.78
2017-09-23T05:16:52.927Z,44.28
2017-09-23T05:19:19.594Z,44.45
2017-09-23T05:21:46.255Z,44.13
2017-09-23T05:24:12.915Z,44.15
2017-09-23T05:26:39.595Z,44.53
2017-09-23T05:29:06.259Z,41.00
2017-09-23T05:31:32.924Z,43.22
2017-09-23T05:33:59.621Z,41.58
2017-09-23T05:36:26.287Z,45.65
2017-09-23T05:38:52.974Z,41.67
2017-09-23T05:41:19.636Z,44.95
2017-09-23T05:43:46.327Z,47.13
2017-09-23T05:46:12.999Z,41.42
2017-09-23T05:48:39.663Z,40.03
2017-09-23T05:51:06.327Z,40.83
2017-09-23T05:53:32.987Z,44.05
2017-09-23T05:55:59.676Z,42.65
2017-09-23T05:58:26.339Z,42.97
2017-09-23T06:00:53.022Z,42.67
2017-09-23T06:03:19.696Z,39.67
2017-09-23T06:05:46.382Z,39.70
2017-09-23T06:08:13.047Z,38.67
2017-09-23T06:10:39.743Z,40.25
2017-09-23T06:13:06.408Z,37.03
2017-09-23T06:15:33.108Z,37.72
2017-09-23T06:17:59.776Z,35.30
2017-09-23T06:20:26.439Z,34.92
2017-09-23T06:22:53.096Z,35.60
2017-09-23T06:25:19.768Z,36.22
2017-09-23T06:27:46.455Z,37.30
2017-09-23T06:30:13.116Z,39.83
2017-09-23T06:32:39.806Z,40.70
2017-09-23T06:35:06.467Z,40.80
2017-09-23T06:37:33.154Z,39.83
2017-09-23T06:39:59.815Z,39.40
2017-09-23T06:42:26.503Z,41.67
2017-09-23T06:44:53.163Z,43.50
2017-09-23T06:47:19.856Z,41.40
2017-09-23T06:49:46.523Z,40.58
2017-09-23T06:52:13.231Z,40.28
2017-09-23T06:54:39.896Z,42.13
2017-09-23T06:57:06.568Z,44.38
2017-09-23T06:59:33.236Z,46.47
2017-09-23T07:01:59.899Z,48.35
2017-09-23T07:04:26.591Z,49.58
2017-09-23T07:06:53.257Z,48.95
2017-09-23T07:09:19.944Z,47.35
2017-09-23T07:11:46.620Z,48.50
2017-09-23T07:14:13.320Z,46.03
2017-09-23T07:16:39.983Z,48.90
2017-09-23T07:19:06.663Z,48.33
2017-09-23T07:21:33.323Z,49.93
2017-09-23T07:24:00.015Z,49.40
2017-09-23T07:26:26.684Z,51.23
2017-09-23T07:28:53.352Z,52.57
2017-09-23T07:31:20.011Z,54.00
2017-09-23T07:33:46.671Z,52.10
2017-09-23T07:36:13.364Z,53.37
2017-09-23T07:38:40.027Z,54.37
2017-09-23T07:41:06.723Z,53.60
2017-09-23T07:43:33.395Z,52.53
2017-09-23T07:46:00.107Z,51.65
2017-09-23T07:48:26.779Z,55.92
2017-09-23T07:50:53.707Z,51.95
2017-09-23T07:53:20.376Z,54.15
2017-09-23T07:55:47.056Z,51.75
2017-09-23T07:58:13.739Z,51.30
2017-09-23T08:00:40.412Z,52.15
2017-09-23T08:03:07.084Z,54.05
2017-09-23T08:05:33.757Z,53.03
2017-09-23T08:08:00.427Z,51.25
2017-09-23T08:10:27.092Z,53.27
2017-09-23T08:12:53.776Z,52.00
2017-09-23T08:15:20.455Z,56.30
2017-09-23T08:17:47.151Z,54.10
2017-09-23T08:20:13.811Z,54.57
2017-09-23T08:22:40.523Z,56.33
2017-09-23T08:25:07.184Z,55.23
2017-09-23T08:27:33.848Z,52.57
2017-09-23T08:30:00.517Z,55.60
2017-09-23T08:32:27.178Z,53.50
2017-09-23T08:34:53.874Z,55.80
2017-09-23T08:37:20.535Z,53.10
2017-09-23T08:39:47.204Z,54.47
2017-09-23T08:42:13.884Z,51.70
2017-09-23T08:44:40.552Z,51.37
2017-09-23T08:47:07.218Z,51.53
2017-09-23T08:49:33.907Z,50.93
2017-09-23T08:52:00.579Z,54.07
2017-09-23T08:54:27.270Z,55.43
2017-09-23T08:56:53.946Z,54.73
2017-09-23T08:59:20.636Z,55.67
2017-09-23T09:01:47.298Z,57.43
2017-09-23T09:04:14.016Z,54.67
2017-09-23T09:06:40.684Z,56.80
2017-09-23T09:09:07.343Z,54.57
2017-09-23T09:11:34.003Z,55.57
2017-09-23T09:14:00.669Z,57.40
2017-09-23T09:16:27.335Z,52.67
2017-09-23T09:18:54.003Z,54.90
2017-09-23T09:21:20.669Z,53.30
2017-09-23T09:23:47.343Z,52.67
2017-09-23T09:26:14.006Z,53.07
2017-09-23T09:28:40.671Z,57.00
2017-09-23T09:31:07.359Z,56.97
2017-09-23T09:33:34.031Z,58.60
2017-09-23T09:36:00.731Z,57.43
2017-09-23T09:38:27.395Z,57.63
2017-09-23T09:40:54.098Z,56.03
2017-09-23T09:43:20.765Z,61.47
2017-09-23T09:45:47.429Z,57.33
2017-09-23T09:48:14.092Z,66.20
2017-09-23T09:50:40.761Z,64.00
2017-09-23T09:53:07.436Z,69.63
2017-09-23T09:55:34.099Z,65.77
2017-09-23T09:58:00.770Z,70.00
2017-09-23T10:00:27.439Z,66.70
2017-09-23T10:02:54.103Z,67.13
2017-09-23T10:05:20.763Z,66.57
2017-09-23T10:07:47.434Z,65.10
2017-09-23T10:10:14.099Z,67.80
2017-09-23T10:12:44.608Z,65.50
2017-09-23T10:15:11.280Z,64.73
2017-09-23T10:17:37.941Z,62.87
2017-09-23T10:20:04.615Z,63.80
2017-09-23T10:22:31.279Z,64.93
2017-09-23T10:24:57.948Z,67.73
2017-09-23T10:27:24.621Z,67.67
2017-09-23T10:29:51.282Z,70.10
2017-09-23T10:32:17.947Z,74.40
2017-09-23T10:34:44.607Z,73.67
2017-09-23T10:37:11.275Z,72.73
2017-09-23T10:39:37.944Z,68.37
2017-09-23T10:42:04.607Z,70.10
2017-09-23T10:44:31.395Z,68.13
2017-09-23T10:46:58.060Z,60.33
2017-09-23T10:49:24.728Z,61.87
2017-09-23T10:51:51.404Z,57.73
2017-09-23T10:54:18.070Z,62.03
2017-09-23T10:56:44.817Z,65.00
2017-09-23T10:59:11.475Z,68.80
2017-09-23T11:01:38.135Z,64.90
2017-09-23T11:04:04.803Z,71.90
2017-09-23T11:06:31.467Z,66.43
2017-09-23T11:08:58.131Z,68.17
2017-09-23T11:11:24.828Z,67.77
2017-09-23T11:13:51.491Z,69.50
2017-09-23T11:16:18.151Z,67.03
2017-09-23T11:18:44.843Z,66.03
2017-09-23T11:21:11.509Z,69.83
2017-09-23T11:23:38.196Z,65.60
2017-09-23T11:26:04.863Z,64.63
2017-09-23T11:28:31.543Z,65.37
2017-09-23T11:30:58.216Z,69.87
2017-09-23T11:33:24.876Z,66.20
2017-09-23T11:35:51.535Z,60.60
2017-09-23T11:38:18.194Z,57.67
2017-09-23T11:40:44.855Z,58.57
2017-09-23T11:43:11.523Z,66.23
2017-09-23T11:45:38.208Z,60.10
2017-09-23T11:48:04.872Z,58.30
2017-09-23T11:50:31.558Z,59.50
2017-09-23T11:52:58.224Z,56.33
2017-09-23T11:55:24.910Z,57.00
2017-09-23T11:57:51.570Z,54.97
2017-09-23T12:00:18.255Z,53.67
2017-09-23T12:02:44.925Z,51.77
2017-09-23T12:05:11.627Z,53.90
2017-09-23T12:07:38.292Z,51.40
2017-09-23T12:10:04.992Z,50.80
2017-09-23T12:12:31.682Z,84.37
2017-09-23T12:14:58.343Z,49.07
2017-09-23T12:17:25.028Z,44.33
2017-09-23T12:19:51.691Z,48.07
2017-09-23T12:22:18.388Z,48.20
2017-09-23T12:24:45.051Z,48.13
2017-09-23T12:27:11.782Z,47.97
2017-09-23T12:29:38.446Z,48.47
2017-09-23T12:32:05.136Z,48.50
2017-09-23T12:34:31.806Z,44.93
2017-09-23T12:36:58.531Z,42.30
2017-09-23T12:39:25.191Z,42.40
2017-09-23T12:41:51.898Z,43.47
2017-09-23T12:44:18.568Z,38.80
2017-09-23T12:46:45.330Z,41.13
2017-09-23T12:49:11.991Z,37.60
2017-09-23T12:51:38.650Z,35.20
2017-09-23T12:54:05.311Z,39.03
2017-09-23T12:56:31.979Z,35.13
2017-09-23T12:58:58.667Z,37.83
2017-09-23T13:01:25.353Z,38.90
2017-09-23T13:03:52.040Z,36.37
2017-09-23T13:06:18.711Z,35.20
2017-09-23T13:08:45.414Z,34.73
2017-09-23T13:11:12.096Z,37.70
2017-09-23T13:13:38.783Z,35.40
2017-09-23T13:16:05.447Z,35.50
2017-09-23T13:18:32.147Z,40.73
2017-09-23T13:20:58.812Z,42.33
2017-09-23T13:23:25.475Z,40.60
2017-09-23T13:25:52.227Z,44.80
2017-09-23T13:28:18.911Z,44.20
2017-09-23T13:30:45.579Z,42.40
2017-09-23T13:33:12.269Z,45.03
2017-09-23T13:35:38.961Z,43.37
2017-09-23T13:38:05.631Z,45.00
2017-09-23T13:40:32.336Z,42.87
2017-09-23T13:42:59.001Z,42.27
2017-09-23T13:45:25.700Z,36.60
2017-09-23T13:47:52.373Z,38.30
2017-09-23T13:50:19.075Z,36.30
2017-09-23T13:52:45.744Z,37.00
2017-09-23T13:55:12.406Z,35.90
2017-09-23T13:57:39.084Z,34.40
2017-09-23T14:00:05.780Z,35.10
2017-09-23T14:02:32.439Z,34.90
2017-09-23T14:04:59.125Z,34.45
2017-09-23T14:07:25.823Z,34.42
2017-09-23T14:09:52.491Z,32.65
2017-09-23T14:12:19.169Z,32.55
2017-09-23T14:14:45.848Z,32.45
2017-09-23T14:17:12.520Z,32.70
2017-09-23T14:19:39.199Z,30.27
2017-09-23T14:22:05.871Z,31.50
2017-09-23T14:24:32.536Z,30.95
2017-09-23T14:26:59.208Z,31.10
2017-09-23T14:29:25.877Z,28.77
2017-09-23T14:31:52.552Z,30.12
2017-09-23T14:34:19.227Z,33.50
2017-09-23T14:36:45.891Z,37.40
2017-09-23T14:39:12.559Z,34.72
2017-09-23T14:41:39.228Z,36.65
2017-09-23T14:44:05.936Z,36.05
2017-09-23T14:46:32.603Z,38.20
2017-09-23T14:48:59.268Z,37.80
2017-09-23T14:51:25.931Z,36.10
2017-09-23T14:53:52.597Z,36.90
2017-09-23T14:56:19.263Z,39.38
2017-09-23T14:58:45.928Z,35.95
2017-09-23T15:01:12.595Z,40.90
2017-09-23T15:03:39.275Z,39.50
2017-09-23T15:06:05.944Z,37.65
2017-09-23T15:08:32.609Z,40.90
2017-09-23T15:10:59.280Z,39.25
2017-09-23T15:13:25.952Z,38.65
2017-09-23T15:15:52.640Z,40.33
2017-09-23T15:18:19.304Z,38.22
2017-09-23T15:20:45.967Z,38.90
2017-09-23T15:23:12.648Z,37.65
2017-09-23T15:25:39.315Z,39.92
2017-09-23T15:28:05.974Z,37.75
2017-09-23T15:30:32.644Z,29.40
2017-09-23T15:32:59.307Z,37.92
2017-09-23T15:35:25.978Z,37.00
2017-09-23T15:37:52.639Z,39.90
2017-09-23T15:40:19.303Z,38.95
2017-09-23T15:42:45.970Z,38.60
2017-09-23T15:45:12.632Z,40.20
2017-09-23T15:47:39.339Z,38.15
2017-09-23T15:50:06.017Z,36.35
2017-09-23T15:52:32.684Z,36.03
2017-09-23T15:54:59.352Z,34.67
2017-09-23T15:57:26.055Z,39.28
2017-09-23T15:59:52.782Z,37.30
2017-09-23T16:02:19.447Z,37.45
2017-09-23T16:04:46.139Z,34.50
2017-09-23T16:07:12.804Z,36.50
2017-09-23T16:09:39.492Z,34.28
2017-09-23T16:12:06.186Z,37.85
2017-09-23T16:14:32.875Z,38.97
2017-09-23T16:16:59.544Z,34.10
2017-09-23T16:19:26.235Z,37.42
2017-09-23T16:21:52.899Z,37.95
2017-09-23T16:24:19.567Z,40.30
2017-09-23T16:26:46.253Z,37.47
2017-09-23T16:29:12.936Z,36.83
2017-09-23T16:31:39.633Z,38.90
2017-09-23T16:34:06.295Z,35.08
2017-09-23T16:36:33.055Z,35.88
2017-09-23T16:38:59.721Z,35.88
2017-09-23T16:41:26.416Z,36.63
2017-09-23T16:43:53.080Z,34.05
2017-09-23T16:46:19.767Z,36.63
2017-09-23T16:48:46.508Z,36.85
2017-09-23T16:51:13.195Z,36.60
2017-09-23T16:53:39.860Z,35.63
2017-09-23T16:56:06.560Z,35.67
2017-09-23T16:58:33.219Z,35.70
2017-09-23T17:00:59.882Z,35.92
2017-09-23T17:03:26.560Z,33.92
2017-09-23T17:05:53.228Z,35.60
2017-09-23T17:08:19.892Z,33.70
2017-09-23T17:10:46.554Z,34.67
2017-09-23T17:13:13.219Z,32.22
2017-09-23T17:15:39.879Z,33.70
2017-09-23T17:18:06.576Z,34.10
2017-09-23T17:20:33.302Z,33.20
2017-09-23T17:23:00.028Z,33.20
2017-09-23T17:25:26.682Z,35.80
2017-09-23T17:27:53.376Z,35.47
2017-09-23T17:30:20.039Z,37.60
2017-09-23T17:32:46.828Z,33.95
2017-09-23T17:35:13.492Z,34.50
2017-09-23T17:37:40.192Z,35.90
2017-09-23T17:40:06.866Z,35.05
2017-09-23T17:42:33.531Z,36.70
2017-09-23T17:45:00.196Z,35.35
2017-09-23T17:47:26.880Z,37.20
2017-09-23T17:49:53.542Z,38.42
2017-09-23T17:52:20.203Z,36.90
2017-09-23T17:54:46.868Z,38.30
2017-09-23T17:57:13.531Z,38.13
2017-09-23T17:59:40.219Z,36.67
2017-09-23T18:02:06.892Z,41.00
2017-09-23T18:04:33.579Z,37.22
2017-09-23T18:07:00.252Z,38.53
2017-09-23T18:09:26.940Z,39.33
2017-09-23T18:11:53.602Z,40.67
2017-09-23T18:14:20.263Z,40.15
2017-09-23T18:16:46.931Z,39.90
2017-09-23T18:19:13.598Z,39.75
2017-09-23T18:21:40.262Z,39.78
2017-09-23T18:24:06.931Z,38.90
2017-09-23T18:26:33.596Z,40.40
2017-09-23T18:29:00.269Z,40.75
2017-09-23T18:31:26.960Z,40.47
2017-09-23T18:33:53.627Z,43.53
2017-09-23T18:36:20.323Z,43.35
2017-09-23T18:38:46.983Z,41.13
2017-09-23T18:41:13.668Z,40.88
2017-09-23T18:43:40.341Z,45.95
2017-09-23T18:46:07.042Z,46.47
2017-09-23T18:48:33.703Z,47.58
2017-09-23T18:51:00.368Z,45.55
2017-09-23T18:53:27.032Z,43.00
2017-09-23T18:55:53.699Z,47.30
2017-09-23T18:58:20.364Z,46.60
2017-09-23T19:00:47.027Z,45.97
2017-09-23T19:03:13.690Z,47.45
2017-09-23T19:05:40.361Z,45.33
2017-09-23T19:08:07.055Z,47.60
2017-09-23T19:10:33.719Z,46.30
2017-09-23T19:13:00.412Z,49.03
2017-09-23T19:15:27.083Z,49.08
2017-09-23T19:17:53.778Z,48.90
2017-09-23T19:20:20.443Z,51.47
2017-09-23T19:22:47.152Z,52.13
2017-09-23T19:25:13.818Z,48.35
2017-09-23T19:27:40.483Z,51.80
2017-09-23T19:30:07.156Z,50.35
2017-09-23T19:32:33.829Z,53.55
2017-09-23T19:35:00.491Z,52.45
2017-09-23T19:37:27.158Z,56.45
2017-09-23T19:39:53.824Z,55.30
2017-09-23T19:42:20.487Z,59.78
2017-09-23T19:44:47.175Z,56.53
2017-09-23T19:47:13.843Z,57.47
2017-09-23T19:49:40.533Z,57.67
2017-09-23T19:52:07.201Z,61.00
2017-09-23T19:54:33.871Z,55.28
2017-09-23T19:57:00.554Z,59.05
2017-09-23T19:59:27.224Z,63.92
2017-09-23T20:01:53.896Z,64.20
2017-09-23T20:04:20.558Z,59.83
2017-09-23T20:06:47.247Z,59.25
2017-09-23T20:09:13.912Z,61.30
2017-09-23T20:11:40.580Z,58.75
2017-09-23T20:14:07.272Z,57.22
2017-09-23T20:16:33.960Z,56.90
2017-09-23T20:19:00.627Z,51.50
2017-09-23T20:21:27.327Z,56.33
2017-09-23T20:23:53.990Z,44.08
2017-09-23T20:26:20.655Z,51.63
2017-09-23T20:28:47.324Z,58.67
2017-09-23T20:31:13.987Z,52.40
2017-09-23T20:33:40.646Z,53.05
2017-09-23T20:36:07.311Z,50.60
2017-09-23T20:38:33.976Z,48.67
2017-09-23T20:41:00.646Z,50.38
2017-09-23T20:43:27.311Z,52.42
2017-09-23T20:45:54.073Z,51.70
2017-09-23T20:48:20.739Z,47.58
2017-09-23T20:50:47.403Z,51.95
2017-09-23T20:53:14.091Z,48.08
2017-09-23T20:55:40.760Z,50.33
2017-09-23T20:58:07.427Z,45.85
2017-09-23T21:00:34.092Z,45.08
2017-09-23T21:03:00.754Z,47.67
2017-09-23T21:05:27.415Z,47.30
2017-09-23T21:07:54.083Z,47.40
2017-09-23T21:10:20.743Z,45.40
2017-09-23T21:12:47.414Z,48.22
2017-09-23T21:15:14.109Z,50.47
2017-09-23T21:17:40.783Z,49.10
2017-09-23T21:20:07.471Z,50.38
2017-09-23T21:22:34.135Z,52.30
2017-09-23T21:25:00.790Z,47.75
2017-09-23T21:27:27.452Z,48.38
2017-09-23T21:29:54.119Z,48.40
2017-09-23T21:32:20.807Z,53.55
2017-09-23T21:34:47.472Z,55.70
2017-09-23T21:37:14.164Z,52.30
2017-09-23T21:39:40.837Z,54.53
2017-09-23T21:42:07.528Z,50.47
2017-09-23T21:44:34.191Z,51.83
2017-09-23T21:47:00.881Z,54.33
2017-09-23T21:49:27.542Z,53.78
2017-09-23T21:51:54.263Z,49.15
2017-09-23T21:54:20.923Z,49.50
2017-09-23T21:56:47.616Z,50.85
2017-09-23T21:59:14.280Z,52.15
2017-09-23T22:01:40.942Z,47.25
2017-09-23T22:04:07.630Z,45.08
2017-09-23T22:06:34.296Z,45.80
2017-09-23T22:09:00.983Z,43.17
2017-09-23T22:11:27.644Z,45.35
2017-09-23T22:13:54.331Z,48.42
2017-09-23T22:16:20.995Z,43.35
2017-09-23T22:18:47.683Z,44.95
2017-09-23T22:21:14.360Z,47.05
2017-09-23T22:23:41.043Z,45.92
2017-09-23T22:26:07.707Z,43.55
2017-09-23T22:28:34.392Z,44.28
2017-09-23T22:31:01.060Z,43.60
2017-09-23T22:33:27.723Z,43.30
2017-09-23T22:35:54.384Z,41.55
2017-09-23T22:38:21.051Z,37.70
2017-09-23T22:40:47.738Z,39.75
2017-09-23T22:43:14.407Z,39.53
2017-09-23T22:45:41.094Z,40.25
2017-09-23T22:48:07.767Z,39.65
2017-09-23T22:50:34.475Z,39.00
2017-09-23T22:53:01.143Z,40.20
2017-09-23T22:55:27.808Z,40.03
2017-09-23T22:57:54.472Z,39.33
2017-09-23T23:00:21.158Z,36.70
2017-09-23T23:02:48.659Z,38.00
2017-09-23T23:05:15.327Z,37.15
2017-09-23T23:07:41.992Z,34.40
2017-09-23T23:10:08.652Z,33.20
2017-09-23T23:12:35.343Z,35.20
2017-09-23T23:15:02.102Z,33.97
2017-09-23T23:17:28.787Z,35.67
2017-09-23T23:19:55.456Z,32.40
2017-09-23T23:22:22.143Z,32.00
2017-09-23T23:24:48.803Z,32.03
2017-09-23T23:27:15.491Z,35.10
2017-09-23T23:29:42.150Z,33.80
2017-09-23T23:32:08.824Z,34.05
2017-09-23T23:34:35.494Z,32.90
2017-09-23T23:37:02.164Z,35.58
2017-09-23T23:39:28.831Z,34.80
2017-09-23T23:41:55.496Z,33.08
2017-09-23T23:44:22.163Z,33.97
2017-09-23T23:46:48.831Z,32.58
2017-09-23T23:49:15.503Z,32.42
2017-09-23T23:51:42.167Z,33.30
2017-09-23T23:54:08.856Z,31.85
2017-09-23T23:56:35.520Z,35.53
2017-09-23T23:59:02.261Z,32.40
